createdAt,value
2022-11-03T05:10:54.651Z,15.32
2022-11-03T05:13:27.327Z,15.20
2022-11-03T05:16:02.082Z,15.37
2022-11-03T05:18:32.786Z,15.42
2022-11-03T05:21:04.789Z,15.36
2022-11-03T05:23:40.405Z,15.09
2022-11-03T05:26:15.661Z,14.98
2022-11-03T05:28:48.605Z,14.99
2022-11-03T05:31:26.639Z,15.13
2022-11-03T05:33:58.321Z,15.05
2022-11-03T05:36:30.676Z,15.08
2022-11-03T05:39:27.283Z,15.27
2022-11-03T05:41:55.515Z,15.25
2022-11-03T05:44:36.995Z,15.35
2022-11-03T05:47:18.886Z,15.35
2022-11-03T05:49:46.495Z,15.29
2022-11-03T05:52:27.031Z,15.27
2022-11-03T05:54:58.934Z,15.29
2022-11-03T05:57:30.202Z,15.38
2022-11-03T05:59:58.179Z,15.29
2022-11-03T06:02:39.174Z,15.26
2022-11-03T06:05:20.483Z,15.26
2022-11-03T06:07:50.295Z,15.33
2022-11-03T06:10:25.575Z,15.37
2022-11-03T06:13:14.715Z,15.16
2022-11-03T06:15:45.638Z,14.99
2022-11-03T06:18:22.369Z,14.94
2022-11-03T06:20:58.640Z,15.10
2022-11-03T06:23:26.903Z,15.20
2022-11-03T06:25:56.400Z,15.26
2022-11-03T06:28:29.418Z,15.40
2022-11-03T06:30:57.002Z,15.41
2022-11-03T06:33:28.091Z,15.42
2022-11-03T06:36:00.553Z,15.47
2022-11-03T06:38:30.962Z,15.55
2022-11-03T06:40:58.988Z,15.34
2022-11-03T06:43:37.071Z,15.33
2022-11-03T06:46:19.797Z,15.42
2022-11-03T06:48:47.110Z,15.47
2022-11-03T06:51:26.941Z,15.49
2022-11-03T06:53:58.897Z,15.52
2022-11-03T06:56:35.221Z,15.49
2022-11-03T06:59:03.123Z,15.55
2022-11-03T07:01:34.166Z,15.29
2022-11-03T07:04:19.306Z,15.43
2022-11-03T07:06:53.018Z,15.45
2022-11-03T07:09:24.027Z,15.33
2022-11-03T07:11:55.120Z,15.36
2022-11-03T07:14:28.760Z,15.41
2022-11-03T07:17:02.734Z,15.48
2022-11-03T07:19:35.063Z,15.45
2022-11-03T07:22:09.482Z,15.55
2022-11-03T07:24:41.167Z,15.51
2022-11-03T07:27:14.798Z,15.24
2022-11-03T07:29:43.209Z,15.46
2022-11-03T07:32:19.950Z,15.61
2022-11-03T07:34:49.369Z,15.64
2022-11-03T07:37:23.259Z,15.53
2022-11-03T07:39:52.451Z,15.55
2022-11-03T07:42:24.371Z,15.73
2022-11-03T07:44:56.046Z,15.54
2022-11-03T07:47:27.633Z,15.49
2022-11-03T07:49:56.625Z,15.49
2022-11-03T07:52:25.790Z,15.51
2022-11-03T07:54:56.904Z,15.53
2022-11-03T07:57:31.123Z,15.55
2022-11-03T08:00:08.826Z,15.74
2022-11-03T08:02:54.961Z,15.58
2022-11-03T08:05:22.952Z,15.85
2022-11-03T08:07:50.146Z,15.91
2022-11-03T08:10:18.346Z,15.69
2022-11-03T08:12:45.569Z,15.50
2022-11-03T08:15:12.807Z,15.51
2022-11-03T08:17:40.523Z,15.51
2022-11-03T08:20:08.213Z,15.60
2022-11-03T08:22:35.858Z,15.50
2022-11-03T08:25:03.155Z,15.60
2022-11-03T08:27:30.437Z,15.95
2022-11-03T08:29:58.297Z,16.06
2022-11-03T08:32:25.643Z,16.22
2022-11-03T08:34:52.885Z,16.13
2022-11-03T08:37:21.050Z,16.25
2022-11-03T08:39:48.699Z,16.35
2022-11-03T08:42:15.934Z,16.31
2022-11-03T08:44:43.300Z,16.04
2022-11-03T08:47:11.679Z,15.82
2022-11-03T08:49:39.522Z,15.59
2022-11-03T08:52:07.232Z,15.66
2022-11-03T08:54:34.730Z,16.03
2022-11-03T08:57:02.075Z,15.99
2022-11-03T08:59:29.299Z,16.14
2022-11-03T09:01:57.675Z,16.11
2022-11-03T09:04:25.391Z,15.66
2022-11-03T09:06:52.932Z,15.95
2022-11-03T09:12:11.259Z,15.73
2022-11-03T09:14:39.066Z,15.90
2022-11-03T09:17:07.084Z,15.98
2022-11-03T09:19:34.914Z,15.96
2022-11-03T09:22:02.227Z,15.39
2022-11-03T09:24:30.428Z,15.09
2022-11-03T09:27:02.017Z,15.10
2022-11-03T09:29:51.720Z,15.10
2022-11-03T09:32:22.934Z,15.06
2022-11-03T09:34:51.293Z,15.06
2022-11-03T09:37:19.443Z,14.90
2022-11-03T09:39:49.872Z,14.70
2022-11-03T09:42:18.662Z,14.78
2022-11-03T09:44:48.960Z,15.10
2022-11-03T09:47:25.082Z,15.28
2022-11-03T09:49:58.182Z,15.12
2022-11-03T09:52:25.655Z,15.28
2022-11-03T09:54:55.544Z,15.12
2022-11-03T09:57:24.047Z,15.23
2022-11-03T09:59:52.169Z,15.39
2022-11-03T10:02:27.520Z,15.43
2022-11-03T10:04:57.557Z,15.39
2022-11-03T10:07:27.186Z,15.25
2022-11-03T10:09:57.935Z,15.25
2022-11-03T10:12:26.429Z,15.32
2022-11-03T10:14:54.933Z,15.46
2022-11-03T10:17:27.089Z,15.37
2022-11-03T10:19:56.781Z,15.34
2022-11-03T10:22:24.125Z,15.35
2022-11-03T10:25:30.436Z,15.54
2022-11-03T10:28:20.180Z,15.87
2022-11-03T10:31:17.002Z,16.08
2022-11-03T10:33:54.583Z,16.04
2022-11-03T10:36:28.814Z,16.21
2022-11-03T10:38:56.873Z,16.23
2022-11-03T10:41:33.449Z,16.28
2022-11-03T10:44:02.223Z,16.35
2022-11-03T10:46:50.662Z,16.45
2022-11-03T10:49:20.122Z,16.78
2022-11-03T10:51:51.349Z,16.75
2022-11-03T10:54:22.787Z,16.91
2022-11-03T10:56:52.531Z,17.16
2022-11-03T10:59:31.879Z,17.44
2022-11-03T11:02:01.374Z,17.34
2022-11-03T11:04:28.870Z,17.58
2022-11-03T11:06:57.124Z,17.51
2022-11-03T11:09:26.547Z,17.21
2022-11-03T11:12:18.570Z,17.09
2022-11-03T11:14:55.774Z,17.33
2022-11-03T11:17:44.530Z,17.12
2022-11-03T11:20:33.870Z,17.17
2022-11-03T11:23:41.512Z,17.36
2022-11-03T11:26:09.999Z,17.12
2022-11-03T11:28:38.258Z,16.91
2022-11-03T11:31:29.822Z,17.19
2022-11-03T11:34:09.428Z,17.06
2022-11-03T11:37:04.235Z,17.35
2022-11-03T11:39:32.059Z,17.15
2022-11-03T11:42:21.786Z,17.47
2022-11-03T11:44:51.506Z,17.32
2022-11-03T11:47:34.616Z,16.69
2022-11-03T11:50:10.937Z,16.62
2022-11-03T11:52:47.412Z,16.75
2022-11-03T11:55:30.376Z,17.20
2022-11-03T11:58:00.792Z,17.77
2022-11-03T12:00:32.528Z,18.45
2022-11-03T12:03:01.181Z,18.84
2022-11-03T12:05:34.402Z,18.57
2022-11-03T12:08:23.681Z,19.29
2022-11-03T12:11:13.112Z,19.48
2022-11-03T12:13:47.579Z,19.68
2022-11-03T12:16:32.056Z,19.78
2022-11-03T12:19:36.513Z,19.97
2022-11-03T12:22:10.233Z,19.67
2022-11-03T12:25:26.982Z,19.29
2022-11-03T12:27:54.433Z,19.20
2022-11-03T12:30:21.728Z,19.19
2022-11-03T12:32:49.565Z,19.54
2022-11-03T12:35:17.115Z,19.75
2022-11-03T12:37:44.692Z,19.28
2022-11-03T12:40:13.819Z,18.99
2022-11-03T12:42:41.208Z,19.49
2022-11-03T12:45:09.375Z,19.62
2022-11-03T12:47:37.037Z,19.36
2022-11-03T12:50:05.046Z,19.38
2022-11-03T12:52:32.310Z,19.12
2022-11-03T12:55:00.344Z,19.39
2022-11-03T12:57:28.026Z,20.04
2022-11-03T12:59:55.827Z,20.55
2022-11-03T13:02:23.481Z,20.46
2022-11-03T13:04:50.853Z,20.37
2022-11-03T13:07:25.010Z,19.98
2022-11-03T13:09:55.128Z,20.00
2022-11-03T13:12:31.388Z,19.93
2022-11-03T13:15:00.705Z,19.74
2022-11-03T13:17:35.769Z,19.89
2022-11-03T13:20:16.409Z,20.20
2022-11-03T13:22:43.729Z,20.02
2022-11-03T13:25:11.542Z,20.11
2022-11-03T13:27:38.860Z,20.17
2022-11-03T13:30:07.789Z,19.90
2022-11-03T13:32:35.134Z,19.97
2022-11-03T13:35:20.742Z,19.34
2022-11-03T13:37:55.334Z,18.74
2022-11-03T13:43:11.729Z,18.84
2022-11-03T13:45:39.519Z,18.84
2022-11-03T13:49:21.427Z,19.11
2022-11-03T13:50:54.510Z,18.99
2022-11-03T13:56:14.972Z,18.40
2022-11-03T14:01:35.062Z,18.86
2022-11-03T14:06:50.282Z,18.56
2022-11-03T14:09:18.136Z,18.82
2022-11-03T14:12:03.855Z,18.78
2022-11-03T14:14:31.402Z,18.61
2022-11-03T14:16:58.652Z,18.47
2022-11-03T14:19:38.128Z,18.51
2022-11-03T14:22:08.935Z,18.31
2022-11-03T14:24:36.274Z,18.37
2022-11-03T14:27:03.559Z,18.35
2022-11-03T14:29:31.209Z,18.31
2022-11-03T14:31:58.933Z,18.21
2022-11-03T14:34:26.354Z,18.08
2022-11-03T14:36:54.357Z,17.80
2022-11-03T14:39:22.210Z,17.91
2022-11-03T14:42:04.666Z,17.92
2022-11-03T14:44:36.988Z,17.75
2022-11-03T14:47:06.359Z,17.60
2022-11-03T14:49:35.000Z,17.55
2022-11-03T14:52:03.966Z,17.47
2022-11-03T14:54:32.127Z,17.64
2022-11-03T14:56:59.968Z,17.52
2022-11-03T14:59:27.403Z,17.57
2022-11-03T15:01:55.808Z,17.32
2022-11-03T15:04:23.503Z,17.51
2022-11-03T15:06:50.925Z,17.29
2022-11-03T15:09:19.506Z,17.30
2022-11-03T15:11:47.277Z,17.14
2022-11-03T15:14:14.959Z,17.14
2022-11-03T15:16:43.875Z,17.14
2022-11-03T15:19:11.137Z,17.09
2022-11-03T15:21:38.674Z,17.12
2022-11-03T15:26:54.238Z,17.15
2022-11-03T15:29:23.825Z,17.18
2022-11-03T15:31:51.259Z,17.01
2022-11-03T15:34:18.695Z,17.06
2022-11-03T15:36:46.272Z,17.07
2022-11-03T15:39:13.704Z,16.95
2022-11-03T15:41:41.010Z,16.86
2022-11-03T15:44:08.303Z,16.89
2022-11-03T15:46:36.097Z,16.83
2022-11-03T15:49:04.207Z,16.82
2022-11-03T15:51:31.431Z,16.92
2022-11-03T15:53:59.555Z,16.75
2022-11-03T15:56:27.809Z,16.77
2022-11-03T15:58:55.145Z,16.90
2022-11-03T16:01:22.625Z,16.79
2022-11-03T16:03:50.445Z,16.71
2022-11-03T16:06:17.754Z,16.77
2022-11-03T16:08:45.664Z,16.78
2022-11-03T16:11:12.918Z,16.89
2022-11-03T16:13:40.230Z,16.77
2022-11-03T16:16:07.651Z,16.68
2022-11-03T16:18:35.005Z,16.70
2022-11-03T16:21:02.701Z,16.68
2022-11-03T16:23:30.275Z,16.76
2022-11-03T16:25:58.031Z,16.86
2022-11-03T16:28:25.825Z,16.85
2022-11-03T16:30:54.656Z,16.67
2022-11-03T16:33:22.785Z,16.83
2022-11-03T16:35:49.991Z,16.78
2022-11-03T16:38:17.270Z,16.59
2022-11-03T16:40:44.705Z,16.57
2022-11-03T16:43:12.305Z,16.56
2022-11-03T16:45:40.027Z,16.42
2022-11-03T16:48:07.825Z,16.55
2022-11-03T16:50:35.522Z,16.54
2022-11-03T16:53:03.782Z,16.45
2022-11-03T16:55:31.607Z,16.47
2022-11-03T16:57:58.814Z,16.39
2022-11-03T17:00:26.239Z,16.44
2022-11-03T17:02:53.480Z,16.50
2022-11-03T17:05:21.597Z,16.35
2022-11-03T17:07:53.668Z,16.52
2022-11-03T17:10:24.642Z,16.26
2022-11-03T17:12:51.888Z,16.30
2022-11-03T17:15:19.121Z,16.10
2022-11-03T17:17:46.942Z,16.04
2022-11-03T17:20:14.962Z,16.16
2022-11-03T17:22:42.341Z,16.31
2022-11-03T17:25:11.967Z,16.16
2022-11-03T17:27:51.715Z,16.19
2022-11-03T17:30:21.873Z,16.01
2022-11-03T17:32:55.474Z,15.99
2022-11-03T17:35:38.634Z,15.91
2022-11-03T17:38:13.696Z,16.07
2022-11-03T17:40:46.499Z,15.97
2022-11-03T17:43:26.974Z,15.93
2022-11-03T17:45:54.555Z,15.86
2022-11-03T17:48:23.890Z,15.86
2022-11-03T17:50:54.555Z,15.81
2022-11-03T17:53:25.173Z,15.91
2022-11-03T17:56:23.363Z,15.88
2022-11-03T17:58:46.298Z,15.86
2022-11-03T18:01:27.256Z,15.86
2022-11-03T18:03:55.347Z,15.54
2022-11-03T18:06:22.626Z,15.53
2022-11-03T18:08:50.135Z,15.70
2022-11-03T18:11:44.461Z,15.87
2022-11-03T18:14:12.223Z,15.94
2022-11-03T18:16:40.561Z,15.99
2022-11-03T18:19:13.771Z,15.94
2022-11-03T18:21:41.490Z,15.98
2022-11-03T18:24:17.963Z,16.01
2022-11-03T18:26:45.835Z,15.73
2022-11-03T18:29:13.244Z,15.85
2022-11-03T18:31:50.445Z,15.71
2022-11-03T18:34:24.187Z,15.66
2022-11-03T18:36:52.727Z,15.73
2022-11-03T18:39:26.407Z,15.62
2022-11-03T18:41:54.224Z,15.66
2022-11-03T18:44:24.224Z,15.70
2022-11-03T18:46:52.720Z,15.75
2022-11-03T18:49:20.507Z,15.60
2022-11-03T18:51:51.111Z,15.64
2022-11-03T18:54:23.629Z,15.64
2022-11-03T18:56:53.147Z,15.70
2022-11-03T18:59:26.226Z,15.60
2022-11-03T19:01:54.353Z,15.59
2022-11-03T19:04:21.675Z,15.50
2022-11-03T19:06:51.824Z,15.52
2022-11-03T19:09:22.375Z,15.46
2022-11-03T19:11:50.983Z,15.49
2022-11-03T19:14:31.739Z,15.57
2022-11-03T19:17:23.890Z,15.44
2022-11-03T19:19:54.146Z,15.46
2022-11-03T19:22:23.067Z,15.50
2022-11-03T19:24:50.497Z,15.34
2022-11-03T19:27:27.226Z,15.41
2022-11-03T19:29:57.342Z,15.52
2022-11-03T19:32:29.256Z,15.52
2022-11-03T19:35:04.414Z,15.48
2022-11-03T19:37:35.847Z,15.62
2022-11-03T19:40:08.502Z,15.40
2022-11-03T19:42:38.453Z,15.41
2022-11-03T19:45:17.274Z,15.57
2022-11-03T19:48:18.089Z,15.25
2022-11-03T19:50:38.837Z,15.27
2022-11-03T19:53:07.747Z,15.37
2022-11-03T19:55:41.198Z,15.33
2022-11-03T19:58:20.745Z,15.40
2022-11-03T20:00:49.324Z,15.32
2022-11-03T20:03:16.991Z,15.40
2022-11-03T20:05:49.662Z,15.36
2022-11-03T20:08:21.187Z,15.40
2022-11-03T20:10:48.662Z,15.45
2022-11-03T20:13:19.977Z,15.35
2022-11-03T20:15:47.543Z,15.38
2022-11-03T20:18:15.935Z,15.44
2022-11-03T20:20:45.382Z,15.45
2022-11-03T20:23:30.663Z,15.41
2022-11-03T20:25:58.903Z,15.47
2022-11-03T20:28:29.599Z,15.27
2022-11-03T20:30:57.279Z,15.39
2022-11-03T20:33:25.332Z,15.30
2022-11-03T20:35:54.463Z,15.20
2022-11-03T20:38:24.810Z,15.20
2022-11-03T20:40:58.664Z,15.31
2022-11-03T20:43:29.814Z,15.34
2022-11-03T20:45:58.258Z,15.31
2022-11-03T20:48:25.675Z,15.22
2022-11-03T20:50:54.029Z,15.15
2022-11-03T20:53:24.047Z,15.05
2022-11-03T20:55:52.307Z,15.03
2022-11-03T20:58:19.751Z,15.10
2022-11-03T21:00:48.848Z,15.06
2022-11-03T21:03:45.049Z,15.03
2022-11-03T21:06:16.459Z,15.10
2022-11-03T21:08:48.165Z,14.99
2022-11-03T21:11:29.609Z,15.22
2022-11-03T21:14:16.752Z,15.16
2022-11-03T21:17:02.905Z,15.26
2022-11-03T21:19:51.006Z,15.16
2022-11-03T21:22:50.822Z,15.16
2022-11-03T21:25:16.826Z,15.17
2022-11-03T21:27:44.158Z,15.17
2022-11-03T21:30:17.105Z,15.21
2022-11-03T21:32:44.389Z,15.11
2022-11-03T21:35:18.187Z,15.48
2022-11-03T21:37:45.639Z,15.27
2022-11-03T21:40:13.405Z,15.28
2022-11-03T21:42:59.446Z,15.36
2022-11-03T21:45:26.843Z,15.31
2022-11-03T21:48:14.732Z,15.35
2022-11-03T21:51:04.647Z,15.24
2022-11-03T21:53:32.368Z,15.53
